WLTO2: East Cache Creek Nr Walters, O

Data processed at Wed May 22 2019 23:50


All information presented herein is the property of the government of the United States of America and may be revised or deleted at any time without prior notice.
Dissemination of this information without the expressed written consent of the Public Affairs Office, Tulsa District U.S. Army Corps of Engineers is strictly prohibited.
These data are gathered electronically and, as presented, have not undergone any form of quality control. These data are not guaranteed to be valid or correct.
Go to home page.
Go to station list.
Go to home page.

Upstream stations:

Downstream station:
Previous Day
Next Day
Current Day
    
SHEF ID:       WLTO2     East Cache Creek near Walters, O
STATION TYPE:  
Regulating: Stage =    15.00, Flow =     1957

               PRECIP PRECIP(A)     STAGE  RIV-FLOW  BAT-LOAD
                   in        in        ft       cfs      volt
              Ccp-Rev   Ccp-Rev   Ccp-Rev   Ccp-Rev   Ccp-Rev
(US/Central)
05/22 00:00      0.00      ----     27.44      8667     12.41
05/22 01:00      0.00      ----     27.63      9457     12.41
05/22 02:00      0.00      ----     27.81     10416     12.33
05/22 03:00      0.00      ----     27.95     11419     12.33
05/22 04:00      0.00      ----     28.08     12423     12.33
05/22 05:00      0.00      ----     28.25     13849     12.25
05/22 06:00      0.00      ----     28.41     15318     12.25
05/22 07:00      0.00      ----     28.60     17235     12.25
05/22 08:00      0.00      ----     28.87     20311     12.41
05/22 09:00      0.00      ----     29.05     22613     12.89
05/22 10:00      0.00      ----     29.23     25137     12.97
05/22 11:00      0.00      ----     29.43     28221     13.29
05/22 12:00      0.00      ----     29.61     31268     12.97
05/22 13:00      0.00      ----     29.78     34402     13.13
05/22 14:00      0.00      ----     30.00     38855     13.05
05/22 15:00      0.00      ----     30.21     43558     12.65
05/22 16:00      0.00      ----     30.40     48226     12.65
05/22 17:00      0.00      ----     30.53     51663     12.65
05/22 18:00      0.00      ----     30.69     56179     12.65
05/22 19:00      0.00      ----     30.75     57957     12.57
05/22 20:00      0.00      ----     30.86     61344     12.57
05/22 21:00      0.00      ----     30.91     62939     12.49
05/22 22:00      0.00      ----     30.94     63913     12.49
05/22 23:00      0.00      ----     30.94     63913     12.41